sensor_id;sensor_type;location;lat;lon;timestamp;P1;durP1;ratioP1;P2;durP2;ratioP2
44858;SDS011;30595;52.478;13.524;2022-09-25T00:05:26;193.90;;;126.88;;
44858;SDS011;30595;52.478;13.524;2022-09-25T00:30:30;163.55;;;121.32;;
44858;SDS011;30595;52.478;13.524;2022-09-25T00:55:35;163.45;;;119.88;;
44858;SDS011;30595;52.478;13.524;2022-09-25T01:20:42;163.57;;;119.63;;
44858;SDS011;30595;52.478;13.524;2022-09-25T01:45:52;167.27;;;120.55;;
44858;SDS011;30595;52.478;13.524;2022-09-25T02:10:57;165.18;;;120.45;;
44858;SDS011;30595;52.478;13.524;2022-09-25T02:36:04;166.25;;;121.35;;
44858;SDS011;30595;52.478;13.524;2022-09-25T03:01:09;173.88;;;123.05;;
44858;SDS011;30595;52.478;13.524;2022-09-25T03:26:16;168.57;;;123.25;;
44858;SDS011;30595;52.478;13.524;2022-09-25T03:51:20;200.02;;;127.20;;
44858;SDS011;30595;52.478;13.524;2022-09-25T04:16:24;183.85;;;125.55;;
44858;SDS011;30595;52.478;13.524;2022-09-25T04:41:30;177.45;;;123.78;;
44858;SDS011;30595;52.478;13.524;2022-09-25T05:06:35;177.18;;;123.97;;
44858;SDS011;30595;52.478;13.524;2022-09-25T05:31:39;208.35;;;129.20;;
44858;SDS011;30595;52.478;13.524;2022-09-25T05:56:44;170.02;;;123.82;;
44858;SDS011;30595;52.478;13.524;2022-09-25T06:21:48;177.95;;;125.18;;
44858;SDS011;30595;52.478;13.524;2022-09-25T06:46:52;190.75;;;128.30;;
44858;SDS011;30595;52.478;13.524;2022-09-25T07:11:57;183.98;;;125.82;;
44858;SDS011;30595;52.478;13.524;2022-09-25T07:37:01;210.23;;;132.07;;
44858;SDS011;30595;52.478;13.524;2022-09-25T08:02:05;183.07;;;128.55;;
44858;SDS011;30595;52.478;13.524;2022-09-25T08:27:09;207.93;;;134.82;;
44858;SDS011;30595;52.478;13.524;2022-09-25T08:52:14;255.02;;;141.43;;
44858;SDS011;30595;52.478;13.524;2022-09-25T09:17:21;180.18;;;130.32;;
44858;SDS011;30595;52.478;13.524;2022-09-25T09:42:26;191.98;;;132.50;;
44858;SDS011;30595;52.478;13.524;2022-09-25T10:07:35;218.27;;;136.38;;
44858;SDS011;30595;52.478;13.524;2022-09-25T10:32:45;225.90;;;138.32;;
44858;SDS011;30595;52.478;13.524;2022-09-25T10:58:02;202.45;;;133.95;;
44858;SDS011;30595;52.478;13.524;2022-09-25T11:23:20;240.80;;;141.65;;
44858;SDS011;30595;52.478;13.524;2022-09-25T12:40:53;198.32;;;138.73;;
44858;SDS011;30595;52.478;13.524;2022-09-25T13:07:28;200.05;;;134.50;;
44858;SDS011;30595;52.478;13.524;2022-09-25T13:32:35;204.65;;;133.27;;
44858;SDS011;30595;52.478;13.524;2022-09-25T14:23:05;211.25;;;133.27;;
44858;SDS011;30595;52.478;13.524;2022-09-25T14:48:10;222.30;;;137.93;;
44858;SDS011;30595;52.478;13.524;2022-09-25T15:13:17;211.57;;;134.80;;
44858;SDS011;30595;52.478;13.524;2022-09-25T15:38:26;248.15;;;142.15;;
44858;SDS011;30595;52.478;13.524;2022-09-25T16:03:31;187.88;;;132.02;;
44858;SDS011;30595;52.478;13.524;2022-09-25T16:29:01;217.60;;;134.63;;
44858;SDS011;30595;52.478;13.524;2022-09-25T16:54:08;198.45;;;132.52;;
44858;SDS011;30595;52.478;13.524;2022-09-25T17:19:13;177.48;;;128.63;;
44858;SDS011;30595;52.478;13.524;2022-09-25T17:44:20;215.70;;;132.82;;
44858;SDS011;30595;52.478;13.524;2022-09-25T18:09:25;196.82;;;129.02;;
44858;SDS011;30595;52.478;13.524;2022-09-25T18:34:29;225.93;;;137.02;;
44858;SDS011;30595;52.478;13.524;2022-09-25T18:59:33;177.48;;;127.15;;
44858;SDS011;30595;52.478;13.524;2022-09-25T19:24:38;198.07;;;129.38;;
44858;SDS011;30595;52.478;13.524;2022-09-25T19:49:44;178.55;;;124.90;;
44858;SDS011;30595;52.478;13.524;2022-09-25T20:14:48;179.15;;;126.40;;
44858;SDS011;30595;52.478;13.524;2022-09-25T20:39:52;208.65;;;129.68;;
44858;SDS011;30595;52.478;13.524;2022-09-25T21:04:57;196.60;;;125.15;;
44858;SDS011;30595;52.478;13.524;2022-09-25T21:30:01;181.50;;;124.00;;
44858;SDS011;30595;52.478;13.524;2022-09-25T21:55:06;206.00;;;129.13;;
44858;SDS011;30595;52.478;13.524;2022-09-25T22:20:11;182.82;;;123.05;;
44858;SDS011;30595;52.478;13.524;2022-09-25T22:45:15;172.18;;;121.88;;
44858;SDS011;30595;52.478;13.524;2022-09-25T23:10:19;196.50;;;125.90;;
44858;SDS011;30595;52.478;13.524;2022-09-25T23:35:23;175.32;;;121.95;;
